sensor_id;sensor_type;location;lat;lon;timestamp;P1;durP1;ratioP1;P2;durP2;ratioP2
21507;SDS011;10915;54.352;9.074;2023-09-19T00:11:30;15.57;;;3.83;;
21507;SDS011;10915;54.352;9.074;2023-09-19T00:14:25;22.73;;;4.40;;
21507;SDS011;10915;54.352;9.074;2023-09-19T00:26:04;14.23;;;3.77;;
21507;SDS011;10915;54.352;9.074;2023-09-19T00:32:13;14.97;;;3.83;;
21507;SDS011;10915;54.352;9.074;2023-09-19T00:35:33;13.20;;;4.03;;
21507;SDS011;10915;54.352;9.074;2023-09-19T00:44:08;15.23;;;4.17;;
21507;SDS011;10915;54.352;9.074;2023-09-19T00:56:48;14.53;;;3.67;;
21507;SDS011;10915;54.352;9.074;2023-09-19T01:02:48;10.20;;;3.30;;
21507;SDS011;10915;54.352;9.074;2023-09-19T01:05:46;9.53;;;3.00;;
21507;SDS011;10915;54.352;9.074;2023-09-19T01:37:41;14.37;;;3.00;;
21507;SDS011;10915;54.352;9.074;2023-09-19T01:40:28;8.83;;;2.80;;
21507;SDS011;10915;54.352;9.074;2023-09-19T02:13:48;8.37;;;2.17;;
21507;SDS011;10915;54.352;9.074;2023-09-19T02:23:06;5.87;;;2.07;;
21507;SDS011;10915;54.352;9.074;2023-09-19T02:29:13;11.40;;;2.80;;
21507;SDS011;10915;54.352;9.074;2023-09-19T02:35:18;16.30;;;4.53;;
21507;SDS011;10915;54.352;9.074;2023-09-19T02:41:34;20.43;;;4.40;;
21507;SDS011;10915;54.352;9.074;2023-09-19T02:50:18;28.03;;;6.53;;
21507;SDS011;10915;54.352;9.074;2023-09-19T02:53:04;28.60;;;6.17;;
21507;SDS011;10915;54.352;9.074;2023-09-19T02:56:21;23.70;;;5.73;;
21507;SDS011;10915;54.352;9.074;2023-09-19T02:59:39;22.83;;;5.80;;
21507;SDS011;10915;54.352;9.074;2023-09-19T03:06:06;25.70;;;6.23;;
21507;SDS011;10915;54.352;9.074;2023-09-19T03:09:15;23.83;;;5.27;;
21507;SDS011;10915;54.352;9.074;2023-09-19T03:12:00;18.00;;;4.93;;
21507;SDS011;10915;54.352;9.074;2023-09-19T03:14:29;14.97;;;4.10;;
21507;SDS011;10915;54.352;9.074;2023-09-19T03:17:00;15.50;;;4.63;;
21507;SDS011;10915;54.352;9.074;2023-09-19T03:19:26;18.17;;;4.17;;
21507;SDS011;10915;54.352;9.074;2023-09-19T03:21:52;17.23;;;3.77;;
21507;SDS011;10915;54.352;9.074;2023-09-19T03:24:18;11.60;;;4.10;;
21507;SDS011;10915;54.352;9.074;2023-09-19T03:26:44;18.27;;;4.20;;
21507;SDS011;10915;54.352;9.074;2023-09-19T03:29:10;16.47;;;4.07;;
21507;SDS011;10915;54.352;9.074;2023-09-19T03:31:36;15.70;;;3.87;;
21507;SDS011;10915;54.352;9.074;2023-09-19T03:34:02;17.13;;;4.07;;
21507;SDS011;10915;54.352;9.074;2023-09-19T03:36:29;22.67;;;4.97;;
21507;SDS011;10915;54.352;9.074;2023-09-19T03:38:55;15.20;;;4.23;;
21507;SDS011;10915;54.352;9.074;2023-09-19T03:41:20;15.10;;;4.13;;
21507;SDS011;10915;54.352;9.074;2023-09-19T03:43:46;14.37;;;4.30;;
21507;SDS011;10915;54.352;9.074;2023-09-19T03:46:12;18.83;;;4.53;;
21507;SDS011;10915;54.352;9.074;2023-09-19T03:48:38;17.20;;;4.20;;
21507;SDS011;10915;54.352;9.074;2023-09-19T03:51:03;15.20;;;3.63;;
21507;SDS011;10915;54.352;9.074;2023-09-19T03:53:29;13.53;;;4.10;;
21507;SDS011;10915;54.352;9.074;2023-09-19T03:55:55;13.77;;;3.77;;
21507;SDS011;10915;54.352;9.074;2023-09-19T03:58:20;13.30;;;3.53;;
21507;SDS011;10915;54.352;9.074;2023-09-19T04:00:46;16.50;;;4.00;;
21507;SDS011;10915;54.352;9.074;2023-09-19T04:03:13;17.87;;;4.30;;
21507;SDS011;10915;54.352;9.074;2023-09-19T04:05:44;16.33;;;4.73;;
21507;SDS011;10915;54.352;9.074;2023-09-19T04:08:11;21.40;;;4.87;;
21507;SDS011;10915;54.352;9.074;2023-09-19T04:10:37;23.00;;;5.17;;
21507;SDS011;10915;54.352;9.074;2023-09-19T04:13:03;19.20;;;4.93;;
21507;SDS011;10915;54.352;9.074;2023-09-19T04:15:29;14.93;;;5.00;;
21507;SDS011;10915;54.352;9.074;2023-09-19T04:17:54;25.80;;;5.27;;
21507;SDS011;10915;54.352;9.074;2023-09-19T04:20:20;20.00;;;5.13;;
21507;SDS011;10915;54.352;9.074;2023-09-19T04:22:48;22.43;;;4.63;;
21507;SDS011;10915;54.352;9.074;2023-09-19T04:25:13;17.23;;;4.00;;
21507;SDS011;10915;54.352;9.074;2023-09-19T04:27:39;14.23;;;4.43;;
21507;SDS011;10915;54.352;9.074;2023-09-19T04:30:06;21.23;;;4.97;;
21507;SDS011;10915;54.352;9.074;2023-09-19T04:32:36;22.83;;;5.30;;
21507;SDS011;10915;54.352;9.074;2023-09-19T04:35:04;20.07;;;4.23;;
21507;SDS011;10915;54.352;9.074;2023-09-19T04:37:33;23.50;;;4.47;;
21507;SDS011;10915;54.352;9.074;2023-09-19T04:40:08;19.80;;;4.23;;
21507;SDS011;10915;54.352;9.074;2023-09-19T04:42:38;12.90;;;3.50;;
21507;SDS011;10915;54.352;9.074;2023-09-19T04:45:04;11.20;;;3.47;;
21507;SDS011;10915;54.352;9.074;2023-09-19T04:47:30;16.60;;;4.20;;
21507;SDS011;10915;54.352;9.074;2023-09-19T04:49:55;13.93;;;3.17;;
21507;SDS011;10915;54.352;9.074;2023-09-19T04:52:23;13.37;;;3.30;;
21507;SDS011;10915;54.352;9.074;2023-09-19T04:54:48;13.60;;;2.83;;
21507;SDS011;10915;54.352;9.074;2023-09-19T04:57:14;11.03;;;3.30;;
21507;SDS011;10915;54.352;9.074;2023-09-19T04:59:40;12.23;;;3.23;;
21507;SDS011;10915;54.352;9.074;2023-09-19T05:02:06;14.30;;;3.60;;
21507;SDS011;10915;54.352;9.074;2023-09-19T05:04:33;14.27;;;3.77;;
21507;SDS011;10915;54.352;9.074;2023-09-19T05:06:59;12.20;;;3.20;;
21507;SDS011;10915;54.352;9.074;2023-09-19T05:09:26;12.47;;;3.70;;
21507;SDS011;10915;54.352;9.074;2023-09-19T05:11:52;16.57;;;4.40;;
21507;SDS011;10915;54.352;9.074;2023-09-19T05:14:18;10.10;;;2.97;;
21507;SDS011;10915;54.352;9.074;2023-09-19T05:16:44;11.07;;;2.93;;
21507;SDS011;10915;54.352;9.074;2023-09-19T05:19:10;9.87;;;2.97;;
21507;SDS011;10915;54.352;9.074;2023-09-19T05:21:37;11.23;;;2.70;;
21507;SDS011;10915;54.352;9.074;2023-09-19T05:24:04;14.07;;;3.17;;
21507;SDS011;10915;54.352;9.074;2023-09-19T05:26:31;13.87;;;3.40;;
21507;SDS011;10915;54.352;9.074;2023-09-19T05:29:00;12.43;;;3.23;;
21507;SDS011;10915;54.352;9.074;2023-09-19T05:31:27;14.93;;;3.90;;
21507;SDS011;10915;54.352;9.074;2023-09-19T05:33:53;11.67;;;3.40;;
21507;SDS011;10915;54.352;9.074;2023-09-19T05:36:20;14.37;;;3.03;;
21507;SDS011;10915;54.352;9.074;2023-09-19T05:38:46;14.23;;;3.47;;
21507;SDS011;10915;54.352;9.074;2023-09-19T05:41:14;16.70;;;4.17;;
21507;SDS011;10915;54.352;9.074;2023-09-19T05:43:41;12.17;;;3.23;;
21507;SDS011;10915;54.352;9.074;2023-09-19T05:46:07;15.67;;;4.13;;
21507;SDS011;10915;54.352;9.074;2023-09-19T05:48:33;12.93;;;3.97;;
21507;SDS011;10915;54.352;9.074;2023-09-19T05:50:59;13.13;;;3.93;;
21507;SDS011;10915;54.352;9.074;2023-09-19T05:53:26;16.13;;;4.03;;
21507;SDS011;10915;54.352;9.074;2023-09-19T05:55:52;14.83;;;4.33;;
21507;SDS011;10915;54.352;9.074;2023-09-19T05:58:19;12.83;;;3.70;;
21507;SDS011;10915;54.352;9.074;2023-09-19T06:00:45;15.43;;;3.60;;
21507;SDS011;10915;54.352;9.074;2023-09-19T06:03:12;13.40;;;3.50;;
21507;SDS011;10915;54.352;9.074;2023-09-19T06:05:39;18.47;;;3.83;;
21507;SDS011;10915;54.352;9.074;2023-09-19T06:08:06;19.43;;;3.60;;
21507;SDS011;10915;54.352;9.074;2023-09-19T06:10:33;12.90;;;4.37;;
21507;SDS011;10915;54.352;9.074;2023-09-19T06:13:00;12.83;;;3.77;;
21507;SDS011;10915;54.352;9.074;2023-09-19T06:15:29;14.50;;;4.13;;
21507;SDS011;10915;54.352;9.074;2023-09-19T06:17:57;15.90;;;3.47;;
21507;SDS011;10915;54.352;9.074;2023-09-19T06:20:24;15.33;;;3.70;;
21507;SDS011;10915;54.352;9.074;2023-09-19T06:22:51;14.87;;;3.63;;
21507;SDS011;10915;54.352;9.074;2023-09-19T06:25:18;12.03;;;4.03;;
21507;SDS011;10915;54.352;9.074;2023-09-19T06:27:51;14.33;;;3.60;;
21507;SDS011;10915;54.352;9.074;2023-09-19T06:30:18;17.10;;;3.67;;
21507;SDS011;10915;54.352;9.074;2023-09-19T06:32:45;13.70;;;4.47;;
21507;SDS011;10915;54.352;9.074;2023-09-19T06:35:11;16.03;;;3.30;;
21507;SDS011;10915;54.352;9.074;2023-09-19T06:37:38;14.97;;;3.70;;
21507;SDS011;10915;54.352;9.074;2023-09-19T06:40:13;14.23;;;3.40;;
21507;SDS011;10915;54.352;9.074;2023-09-19T06:42:50;12.23;;;3.50;;
21507;SDS011;10915;54.352;9.074;2023-09-19T06:45:17;13.63;;;2.67;;
21507;SDS011;10915;54.352;9.074;2023-09-19T06:47:46;15.13;;;3.50;;
21507;SDS011;10915;54.352;9.074;2023-09-19T06:50:20;14.90;;;4.00;;
21507;SDS011;10915;54.352;9.074;2023-09-19T06:52:50;11.63;;;3.40;;
21507;SDS011;10915;54.352;9.074;2023-09-19T06:55:18;10.30;;;3.27;;
21507;SDS011;10915;54.352;9.074;2023-09-19T06:57:45;14.03;;;3.40;;
21507;SDS011;10915;54.352;9.074;2023-09-19T07:00:12;13.37;;;3.40;;
21507;SDS011;10915;54.352;9.074;2023-09-19T07:02:44;14.30;;;3.60;;
21507;SDS011;10915;54.352;9.074;2023-09-19T07:05:10;11.20;;;3.43;;
21507;SDS011;10915;54.352;9.074;2023-09-19T07:07:35;16.23;;;4.53;;
21507;SDS011;10915;54.352;9.074;2023-09-19T07:10:04;15.27;;;4.00;;
21507;SDS011;10915;54.352;9.074;2023-09-19T07:12:30;14.27;;;3.57;;
21507;SDS011;10915;54.352;9.074;2023-09-19T07:14:57;16.80;;;4.30;;
21507;SDS011;10915;54.352;9.074;2023-09-19T07:17:23;22.00;;;4.70;;
21507;SDS011;10915;54.352;9.074;2023-09-19T07:19:49;24.13;;;5.40;;
21507;SDS011;10915;54.352;9.074;2023-09-19T07:22:15;21.80;;;4.90;;
21507;SDS011;10915;54.352;9.074;2023-09-19T07:24:41;13.17;;;4.27;;
21507;SDS011;10915;54.352;9.074;2023-09-19T07:27:06;14.10;;;3.97;;
21507;SDS011;10915;54.352;9.074;2023-09-19T07:29:32;18.20;;;4.50;;
21507;SDS011;10915;54.352;9.074;2023-09-19T07:31:57;17.83;;;4.53;;
21507;SDS011;10915;54.352;9.074;2023-09-19T07:34:23;16.90;;;3.90;;
21507;SDS011;10915;54.352;9.074;2023-09-19T07:36:49;13.63;;;3.77;;
21507;SDS011;10915;54.352;9.074;2023-09-19T07:39:15;17.20;;;3.53;;
21507;SDS011;10915;54.352;9.074;2023-09-19T07:41:41;15.33;;;4.67;;
21507;SDS011;10915;54.352;9.074;2023-09-19T07:44:07;13.17;;;3.57;;
21507;SDS011;10915;54.352;9.074;2023-09-19T07:46:35;15.53;;;3.90;;
21507;SDS011;10915;54.352;9.074;2023-09-19T07:49:00;12.93;;;3.47;;
21507;SDS011;10915;54.352;9.074;2023-09-19T07:51:26;9.70;;;3.23;;
21507;SDS011;10915;54.352;9.074;2023-09-19T07:53:52;17.63;;;4.10;;
21507;SDS011;10915;54.352;9.074;2023-09-19T07:56:19;13.50;;;5.33;;
21507;SDS011;10915;54.352;9.074;2023-09-19T07:58:45;14.47;;;4.30;;
21507;SDS011;10915;54.352;9.074;2023-09-19T08:01:12;19.27;;;9.73;;
21507;SDS011;10915;54.352;9.074;2023-09-19T08:03:38;13.30;;;4.57;;
21507;SDS011;10915;54.352;9.074;2023-09-19T08:06:08;14.77;;;3.77;;
21507;SDS011;10915;54.352;9.074;2023-09-19T08:08:34;14.87;;;5.00;;
21507;SDS011;10915;54.352;9.074;2023-09-19T08:11:04;17.07;;;4.23;;
21507;SDS011;10915;54.352;9.074;2023-09-19T08:13:38;12.13;;;3.20;;
21507;SDS011;10915;54.352;9.074;2023-09-19T08:16:11;12.27;;;3.23;;
21507;SDS011;10915;54.352;9.074;2023-09-19T08:18:40;12.43;;;3.50;;
21507;SDS011;10915;54.352;9.074;2023-09-19T08:21:06;10.43;;;3.80;;
21507;SDS011;10915;54.352;9.074;2023-09-19T08:23:39;9.23;;;3.13;;
21507;SDS011;10915;54.352;9.074;2023-09-19T08:26:05;10.73;;;3.23;;
21507;SDS011;10915;54.352;9.074;2023-09-19T08:28:33;12.63;;;3.53;;
21507;SDS011;10915;54.352;9.074;2023-09-19T08:31:03;13.10;;;4.13;;
21507;SDS011;10915;54.352;9.074;2023-09-19T08:33:32;11.17;;;3.00;;
21507;SDS011;10915;54.352;9.074;2023-09-19T08:35:59;15.57;;;4.67;;
21507;SDS011;10915;54.352;9.074;2023-09-19T08:38:25;12.43;;;4.00;;
21507;SDS011;10915;54.352;9.074;2023-09-19T08:40:57;11.27;;;3.33;;
21507;SDS011;10915;54.352;9.074;2023-09-19T08:43:24;14.67;;;3.07;;
21507;SDS011;10915;54.352;9.074;2023-09-19T08:45:51;15.53;;;3.93;;
21507;SDS011;10915;54.352;9.074;2023-09-19T08:48:24;13.37;;;3.50;;
21507;SDS011;10915;54.352;9.074;2023-09-19T08:50:56;10.40;;;3.43;;
21507;SDS011;10915;54.352;9.074;2023-09-19T08:53:42;10.50;;;3.33;;
21507;SDS011;10915;54.352;9.074;2023-09-19T08:56:14;11.27;;;3.33;;
21507;SDS011;10915;54.352;9.074;2023-09-19T09:01:18;16.83;;;3.63;;
21507;SDS011;10915;54.352;9.074;2023-09-19T09:03:50;13.57;;;4.30;;
21507;SDS011;10915;54.352;9.074;2023-09-19T09:06:17;12.53;;;4.80;;
21507;SDS011;10915;54.352;9.074;2023-09-19T09:08:48;12.43;;;3.00;;
21507;SDS011;10915;54.352;9.074;2023-09-19T09:11:16;13.07;;;3.97;;
21507;SDS011;10915;54.352;9.074;2023-09-19T09:13:43;10.97;;;3.20;;
21507;SDS011;10915;54.352;9.074;2023-09-19T09:16:09;14.40;;;3.67;;
21507;SDS011;10915;54.352;9.074;2023-09-19T09:18:35;13.07;;;3.50;;
21507;SDS011;10915;54.352;9.074;2023-09-19T09:21:01;14.50;;;3.60;;
21507;SDS011;10915;54.352;9.074;2023-09-19T09:23:29;14.17;;;3.33;;
21507;SDS011;10915;54.352;9.074;2023-09-19T09:25:57;12.97;;;3.57;;
21507;SDS011;10915;54.352;9.074;2023-09-19T09:28:24;11.57;;;3.43;;
21507;SDS011;10915;54.352;9.074;2023-09-19T09:30:56;12.60;;;2.83;;
21507;SDS011;10915;54.352;9.074;2023-09-19T09:36:52;10.73;;;3.60;;
21507;SDS011;10915;54.352;9.074;2023-09-19T09:43:10;12.93;;;4.47;;
21507;SDS011;10915;54.352;9.074;2023-09-19T09:46:20;9.43;;;3.37;;
21507;SDS011;10915;54.352;9.074;2023-09-19T09:53:27;13.93;;;3.80;;
21507;SDS011;10915;54.352;9.074;2023-09-19T09:56:13;11.77;;;3.07;;
21507;SDS011;10915;54.352;9.074;2023-09-19T10:15:11;10.03;;;2.83;;
21507;SDS011;10915;54.352;9.074;2023-09-19T10:21:36;11.53;;;3.13;;
21507;SDS011;10915;54.352;9.074;2023-09-19T10:24:38;15.73;;;3.90;;
21507;SDS011;10915;54.352;9.074;2023-09-19T10:45:22;12.43;;;3.80;;
21507;SDS011;10915;54.352;9.074;2023-09-19T10:48:15;11.43;;;3.23;;
21507;SDS011;10915;54.352;9.074;2023-09-19T11:05:15;13.03;;;3.07;;
21507;SDS011;10915;54.352;9.074;2023-09-19T11:30:56;18.67;;;4.37;;
21507;SDS011;10915;54.352;9.074;2023-09-19T11:40:18;12.23;;;3.57;;
21507;SDS011;10915;54.352;9.074;2023-09-19T11:43:01;13.27;;;3.27;;
21507;SDS011;10915;54.352;9.074;2023-09-19T11:46:09;15.13;;;3.43;;
21507;SDS011;10915;54.352;9.074;2023-09-19T11:48:37;10.80;;;3.80;;
21507;SDS011;10915;54.352;9.074;2023-09-19T11:54:15;10.33;;;3.20;;
21507;SDS011;10915;54.352;9.074;2023-09-19T11:57:11;9.73;;;3.30;;
21507;SDS011;10915;54.352;9.074;2023-09-19T12:04:04;11.90;;;3.67;;
21507;SDS011;10915;54.352;9.074;2023-09-19T12:10:13;15.17;;;3.83;;
21507;SDS011;10915;54.352;9.074;2023-09-19T12:12:51;15.83;;;3.63;;
21507;SDS011;10915;54.352;9.074;2023-09-19T12:15:54;12.23;;;3.87;;
21507;SDS011;10915;54.352;9.074;2023-09-19T12:18:31;13.20;;;3.50;;
21507;SDS011;10915;54.352;9.074;2023-09-19T12:21:01;12.37;;;3.27;;
21507;SDS011;10915;54.352;9.074;2023-09-19T12:23:32;11.90;;;3.30;;
21507;SDS011;10915;54.352;9.074;2023-09-19T12:26:21;15.70;;;3.33;;
21507;SDS011;10915;54.352;9.074;2023-09-19T12:34:39;14.50;;;3.83;;
21507;SDS011;10915;54.352;9.074;2023-09-19T12:40:03;10.93;;;3.27;;
21507;SDS011;10915;54.352;9.074;2023-09-19T12:43:01;12.13;;;3.53;;
21507;SDS011;10915;54.352;9.074;2023-09-19T12:56:22;12.87;;;3.30;;
21507;SDS011;10915;54.352;9.074;2023-09-19T13:25:45;11.67;;;3.70;;
21507;SDS011;10915;54.352;9.074;2023-09-19T13:28:52;13.33;;;3.60;;
21507;SDS011;10915;54.352;9.074;2023-09-19T13:35:13;14.57;;;3.87;;
21507;SDS011;10915;54.352;9.074;2023-09-19T13:41:54;11.47;;;3.63;;
21507;SDS011;10915;54.352;9.074;2023-09-19T13:53:36;11.83;;;3.67;;
21507;SDS011;10915;54.352;9.074;2023-09-19T14:07:07;12.67;;;3.20;;
21507;SDS011;10915;54.352;9.074;2023-09-19T14:30:33;13.33;;;3.50;;
21507;SDS011;10915;54.352;9.074;2023-09-19T14:36:27;13.50;;;3.90;;
21507;SDS011;10915;54.352;9.074;2023-09-19T14:51:50;14.40;;;3.37;;
21507;SDS011;10915;54.352;9.074;2023-09-19T14:54:25;12.73;;;3.67;;
21507;SDS011;10915;54.352;9.074;2023-09-19T15:17:25;13.60;;;2.93;;
21507;SDS011;10915;54.352;9.074;2023-09-19T15:23:43;11.60;;;3.47;;
21507;SDS011;10915;54.352;9.074;2023-09-19T15:29:47;12.80;;;4.13;;
21507;SDS011;10915;54.352;9.074;2023-09-19T15:32:22;14.87;;;3.60;;
21507;SDS011;10915;54.352;9.074;2023-09-19T15:36:21;16.73;;;3.73;;
21507;SDS011;10915;54.352;9.074;2023-09-19T15:44:28;13.20;;;3.23;;
21507;SDS011;10915;54.352;9.074;2023-09-19T15:46:54;13.43;;;3.10;;
21507;SDS011;10915;54.352;9.074;2023-09-19T15:49:19;14.37;;;3.77;;
21507;SDS011;10915;54.352;9.074;2023-09-19T15:51:45;9.90;;;3.20;;
21507;SDS011;10915;54.352;9.074;2023-09-19T15:54:15;15.10;;;3.37;;
21507;SDS011;10915;54.352;9.074;2023-09-19T15:56:44;11.80;;;2.93;;
21507;SDS011;10915;54.352;9.074;2023-09-19T15:59:10;11.47;;;2.97;;
21507;SDS011;10915;54.352;9.074;2023-09-19T16:01:39;14.80;;;3.30;;
21507;SDS011;10915;54.352;9.074;2023-09-19T16:04:07;14.73;;;3.40;;
21507;SDS011;10915;54.352;9.074;2023-09-19T16:06:33;15.03;;;3.33;;
21507;SDS011;10915;54.352;9.074;2023-09-19T16:09:00;14.93;;;3.20;;
21507;SDS011;10915;54.352;9.074;2023-09-19T16:11:29;11.40;;;2.77;;
21507;SDS011;10915;54.352;9.074;2023-09-19T16:13:56;12.03;;;3.17;;
21507;SDS011;10915;54.352;9.074;2023-09-19T16:16:22;12.17;;;3.30;;
21507;SDS011;10915;54.352;9.074;2023-09-19T16:18:49;13.97;;;3.33;;
21507;SDS011;10915;54.352;9.074;2023-09-19T16:21:22;13.23;;;3.57;;
21507;SDS011;10915;54.352;9.074;2023-09-19T16:23:49;12.10;;;3.20;;
21507;SDS011;10915;54.352;9.074;2023-09-19T16:26:16;12.43;;;3.20;;
21507;SDS011;10915;54.352;9.074;2023-09-19T16:28:45;13.13;;;3.07;;
21507;SDS011;10915;54.352;9.074;2023-09-19T16:31:12;12.07;;;3.17;;
21507;SDS011;10915;54.352;9.074;2023-09-19T16:33:42;15.80;;;3.50;;
21507;SDS011;10915;54.352;9.074;2023-09-19T16:36:16;15.50;;;3.30;;
21507;SDS011;10915;54.352;9.074;2023-09-19T16:38:44;7.27;;;2.37;;
21507;SDS011;10915;54.352;9.074;2023-09-19T16:41:10;10.77;;;2.83;;
21507;SDS011;10915;54.352;9.074;2023-09-19T16:43:39;10.53;;;3.03;;
21507;SDS011;10915;54.352;9.074;2023-09-19T16:46:06;9.27;;;2.57;;
21507;SDS011;10915;54.352;9.074;2023-09-19T16:48:37;11.93;;;2.93;;
21507;SDS011;10915;54.352;9.074;2023-09-19T16:51:07;13.83;;;3.30;;
21507;SDS011;10915;54.352;9.074;2023-09-19T16:53:34;7.90;;;2.67;;
21507;SDS011;10915;54.352;9.074;2023-09-19T16:56:03;11.67;;;2.77;;
21507;SDS011;10915;54.352;9.074;2023-09-19T16:58:38;11.57;;;2.73;;
21507;SDS011;10915;54.352;9.074;2023-09-19T17:01:11;11.00;;;3.13;;
21507;SDS011;10915;54.352;9.074;2023-09-19T17:03:38;12.43;;;3.50;;
21507;SDS011;10915;54.352;9.074;2023-09-19T17:06:09;10.17;;;3.10;;
21507;SDS011;10915;54.352;9.074;2023-09-19T17:08:38;9.47;;;2.70;;
21507;SDS011;10915;54.352;9.074;2023-09-19T17:11:05;9.97;;;2.43;;
21507;SDS011;10915;54.352;9.074;2023-09-19T17:13:35;10.17;;;3.00;;
21507;SDS011;10915;54.352;9.074;2023-09-19T17:18:37;10.93;;;2.93;;
21507;SDS011;10915;54.352;9.074;2023-09-19T17:21:04;10.90;;;2.60;;
21507;SDS011;10915;54.352;9.074;2023-09-19T17:23:32;10.43;;;2.70;;
21507;SDS011;10915;54.352;9.074;2023-09-19T17:26:02;14.17;;;2.90;;
21507;SDS011;10915;54.352;9.074;2023-09-19T17:28:33;8.07;;;2.80;;
21507;SDS011;10915;54.352;9.074;2023-09-19T17:30:59;10.63;;;2.70;;
21507;SDS011;10915;54.352;9.074;2023-09-19T17:33:33;9.60;;;2.70;;
21507;SDS011;10915;54.352;9.074;2023-09-19T17:36:08;8.53;;;2.20;;
21507;SDS011;10915;54.352;9.074;2023-09-19T17:38:35;8.13;;;2.53;;
21507;SDS011;10915;54.352;9.074;2023-09-19T17:41:04;10.23;;;1.87;;
21507;SDS011;10915;54.352;9.074;2023-09-19T17:43:32;9.23;;;2.30;;
21507;SDS011;10915;54.352;9.074;2023-09-19T17:46:13;10.90;;;2.70;;
21507;SDS011;10915;54.352;9.074;2023-09-19T17:48:40;10.53;;;2.73;;
21507;SDS011;10915;54.352;9.074;2023-09-19T17:51:08;10.33;;;2.73;;
21507;SDS011;10915;54.352;9.074;2023-09-19T17:53:35;11.77;;;3.20;;
21507;SDS011;10915;54.352;9.074;2023-09-19T17:56:05;9.30;;;2.70;;
21507;SDS011;10915;54.352;9.074;2023-09-19T17:58:35;9.97;;;2.30;;
21507;SDS011;10915;54.352;9.074;2023-09-19T18:01:07;15.07;;;2.97;;
21507;SDS011;10915;54.352;9.074;2023-09-19T18:03:37;7.77;;;2.33;;
21507;SDS011;10915;54.352;9.074;2023-09-19T18:06:03;10.43;;;2.93;;
21507;SDS011;10915;54.352;9.074;2023-09-19T18:08:29;9.63;;;3.07;;
21507;SDS011;10915;54.352;9.074;2023-09-19T18:10:55;8.70;;;2.60;;
21507;SDS011;10915;54.352;9.074;2023-09-19T18:13:21;9.40;;;2.60;;
21507;SDS011;10915;54.352;9.074;2023-09-19T18:15:46;14.93;;;3.40;;
21507;SDS011;10915;54.352;9.074;2023-09-19T18:18:12;10.33;;;2.53;;
21507;SDS011;10915;54.352;9.074;2023-09-19T18:20:38;12.70;;;2.33;;
21507;SDS011;10915;54.352;9.074;2023-09-19T18:23:07;10.27;;;2.93;;
21507;SDS011;10915;54.352;9.074;2023-09-19T18:25:33;12.60;;;2.93;;
21507;SDS011;10915;54.352;9.074;2023-09-19T18:28:02;17.27;;;2.87;;
21507;SDS011;10915;54.352;9.074;2023-09-19T18:30:29;10.17;;;2.73;;
21507;SDS011;10915;54.352;9.074;2023-09-19T18:33:00;8.57;;;2.90;;
21507;SDS011;10915;54.352;9.074;2023-09-19T18:35:25;8.80;;;2.50;;
21507;SDS011;10915;54.352;9.074;2023-09-19T18:37:56;9.23;;;2.33;;
21507;SDS011;10915;54.352;9.074;2023-09-19T18:40:22;10.47;;;2.60;;
21507;SDS011;10915;54.352;9.074;2023-09-19T18:42:47;9.00;;;2.33;;
21507;SDS011;10915;54.352;9.074;2023-09-19T18:45:13;7.33;;;1.93;;
21507;SDS011;10915;54.352;9.074;2023-09-19T18:47:39;8.30;;;2.17;;
21507;SDS011;10915;54.352;9.074;2023-09-19T18:50:05;11.27;;;2.60;;
21507;SDS011;10915;54.352;9.074;2023-09-19T18:52:34;9.67;;;2.77;;
21507;SDS011;10915;54.352;9.074;2023-09-19T18:55:01;10.57;;;2.37;;
21507;SDS011;10915;54.352;9.074;2023-09-19T18:57:27;8.63;;;3.00;;
21507;SDS011;10915;54.352;9.074;2023-09-19T18:59:53;8.97;;;2.70;;
21507;SDS011;10915;54.352;9.074;2023-09-19T19:02:19;6.90;;;2.07;;
21507;SDS011;10915;54.352;9.074;2023-09-19T19:04:45;9.07;;;2.60;;
21507;SDS011;10915;54.352;9.074;2023-09-19T19:07:11;10.90;;;2.77;;
21507;SDS011;10915;54.352;9.074;2023-09-19T19:09:41;8.27;;;2.77;;
21507;SDS011;10915;54.352;9.074;2023-09-19T19:12:07;13.83;;;3.00;;
21507;SDS011;10915;54.352;9.074;2023-09-19T19:14:33;9.30;;;2.50;;
21507;SDS011;10915;54.352;9.074;2023-09-19T19:17:00;12.27;;;3.47;;
21507;SDS011;10915;54.352;9.074;2023-09-19T19:19:25;8.00;;;2.47;;
21507;SDS011;10915;54.352;9.074;2023-09-19T19:21:52;9.57;;;3.03;;
21507;SDS011;10915;54.352;9.074;2023-09-19T19:24:18;7.43;;;2.70;;
21507;SDS011;10915;54.352;9.074;2023-09-19T19:26:45;10.93;;;3.00;;
21507;SDS011;10915;54.352;9.074;2023-09-19T19:29:12;9.27;;;3.13;;
21507;SDS011;10915;54.352;9.074;2023-09-19T19:31:39;9.13;;;2.83;;
21507;SDS011;10915;54.352;9.074;2023-09-19T19:34:05;8.90;;;2.77;;
21507;SDS011;10915;54.352;9.074;2023-09-19T19:36:32;10.03;;;2.90;;
21507;SDS011;10915;54.352;9.074;2023-09-19T19:38:58;8.73;;;2.80;;
21507;SDS011;10915;54.352;9.074;2023-09-19T19:41:23;12.63;;;2.73;;
21507;SDS011;10915;54.352;9.074;2023-09-19T19:43:49;12.77;;;3.40;;
21507;SDS011;10915;54.352;9.074;2023-09-19T19:46:15;9.63;;;3.17;;
21507;SDS011;10915;54.352;9.074;2023-09-19T19:48:41;12.53;;;3.50;;
21507;SDS011;10915;54.352;9.074;2023-09-19T19:51:07;11.43;;;3.23;;
21507;SDS011;10915;54.352;9.074;2023-09-19T19:53:35;9.03;;;3.33;;
21507;SDS011;10915;54.352;9.074;2023-09-19T19:56:03;8.90;;;2.93;;
21507;SDS011;10915;54.352;9.074;2023-09-19T19:58:34;9.37;;;2.90;;
21507;SDS011;10915;54.352;9.074;2023-09-19T20:01:02;8.97;;;2.60;;
21507;SDS011;10915;54.352;9.074;2023-09-19T20:03:32;10.07;;;3.73;;
21507;SDS011;10915;54.352;9.074;2023-09-19T20:06:00;9.87;;;3.20;;
21507;SDS011;10915;54.352;9.074;2023-09-19T20:08:26;13.13;;;2.93;;
21507;SDS011;10915;54.352;9.074;2023-09-19T20:10:52;9.50;;;3.20;;
21507;SDS011;10915;54.352;9.074;2023-09-19T20:13:18;10.83;;;3.33;;
21507;SDS011;10915;54.352;9.074;2023-09-19T20:15:57;7.60;;;2.70;;
21507;SDS011;10915;54.352;9.074;2023-09-19T20:18:24;11.77;;;3.50;;
21507;SDS011;10915;54.352;9.074;2023-09-19T20:20:50;8.43;;;2.87;;
21507;SDS011;10915;54.352;9.074;2023-09-19T20:23:17;9.93;;;3.00;;
21507;SDS011;10915;54.352;9.074;2023-09-19T20:25:46;11.73;;;2.93;;
21507;SDS011;10915;54.352;9.074;2023-09-19T20:28:13;13.97;;;3.53;;
21507;SDS011;10915;54.352;9.074;2023-09-19T20:30:40;11.37;;;2.97;;
21507;SDS011;10915;54.352;9.074;2023-09-19T20:33:09;7.57;;;2.83;;
21507;SDS011;10915;54.352;9.074;2023-09-19T20:35:37;8.83;;;2.60;;
21507;SDS011;10915;54.352;9.074;2023-09-19T20:38:03;8.07;;;3.07;;
21507;SDS011;10915;54.352;9.074;2023-09-19T20:40:30;7.97;;;2.83;;
21507;SDS011;10915;54.352;9.074;2023-09-19T20:42:56;7.63;;;2.63;;
21507;SDS011;10915;54.352;9.074;2023-09-19T20:45:23;6.80;;;2.50;;
21507;SDS011;10915;54.352;9.074;2023-09-19T20:47:49;12.97;;;2.97;;
21507;SDS011;10915;54.352;9.074;2023-09-19T20:50:16;8.57;;;2.83;;
21507;SDS011;10915;54.352;9.074;2023-09-19T20:52:43;8.43;;;2.67;;
21507;SDS011;10915;54.352;9.074;2023-09-19T20:55:09;10.00;;;3.13;;
21507;SDS011;10915;54.352;9.074;2023-09-19T20:57:35;9.80;;;3.30;;
21507;SDS011;10915;54.352;9.074;2023-09-19T21:00:02;11.33;;;2.53;;
21507;SDS011;10915;54.352;9.074;2023-09-19T21:02:33;10.50;;;2.90;;
21507;SDS011;10915;54.352;9.074;2023-09-19T21:05:03;9.83;;;2.80;;
21507;SDS011;10915;54.352;9.074;2023-09-19T21:07:29;10.43;;;2.80;;
21507;SDS011;10915;54.352;9.074;2023-09-19T21:09:55;9.90;;;2.97;;
21507;SDS011;10915;54.352;9.074;2023-09-19T21:12:22;10.43;;;3.27;;
21507;SDS011;10915;54.352;9.074;2023-09-19T21:14:48;8.67;;;2.80;;
21507;SDS011;10915;54.352;9.074;2023-09-19T21:17:13;9.80;;;3.30;;
21507;SDS011;10915;54.352;9.074;2023-09-19T21:19:39;13.07;;;3.20;;
21507;SDS011;10915;54.352;9.074;2023-09-19T21:22:05;10.67;;;2.93;;